Time;durP1;ratioP1;P1;durP2;ratioP2;P2;SDS_P1;SDS_P2;PMS_P1;PMS_P2;Temp;Humidity;BMP_temperature;BMP_pressure;BME280_temperature;BME280_humidity;BME280_pressure;Samples;Min_cycle;Max_cycle;Signal;HPM_P1;HPM_P2
2024/04/19 00:00:27;;;;;;;5.00;2.60;;;8.30;99.90;;;;;;5457739;26;20224;-83
2024/04/19 00:02:56;;;;;;;10.63;3.05;;;8.30;99.90;;;;;;5458275;26;20280;-82
2024/04/19 00:05:22;;;;;;;6.25;2.70;;;8.30;99.90;;;;;;5472591;26;20271;-82
2024/04/19 00:07:50;;;;;;;4.53;2.78;;;8.20;99.90;;;;;;5468140;26;20236;-84
2024/04/19 00:10:16;;;;;;;3.35;2.65;;;8.10;99.90;;;;;;5451598;26;20575;-84
2024/04/19 00:12:45;;;;;;;5.57;2.97;;;8.00;99.90;;;;;;5447217;26;20272;-83
2024/04/19 00:15:11;;;;;;;15.73;5.40;;;8.00;99.90;;;;;;5465538;26;20273;-83
2024/04/19 00:17:42;;;;;;;5.38;2.72;;;8.00;99.90;;;;;;5449438;26;20330;-82
2024/04/19 00:20:09;;;;;;;4.63;3.00;;;8.00;99.90;;;;;;5468308;26;20232;-83
2024/04/19 00:22:37;;;;;;;8.70;3.10;;;7.90;99.90;;;;;;5460868;26;20244;-83
2024/04/19 00:25:04;;;;;;;10.27;3.15;;;7.90;99.90;;;;;;5472792;26;20286;-80
2024/04/19 00:27:33;;;;;;;7.30;2.65;;;7.80;99.90;;;;;;5450747;26;20233;-83
2024/04/19 00:29:59;;;;;;;6.32;3.38;;;7.70;99.90;;;;;;5456611;26;20237;-83
2024/04/19 00:32:27;;;;;;;5.35;3.10;;;7.70;99.90;;;;;;5469709;26;20282;-82
2024/04/19 00:34:56;;;;;;;6.90;3.63;;;7.60;99.90;;;;;;5452154;26;20233;-82
2024/04/19 00:37:25;;;;;;;8.95;3.40;;;7.60;99.90;;;;;;5437507;26;20300;-82
2024/04/19 00:39:51;;;;;;;5.30;3.55;;;7.60;99.90;;;;;;5450370;26;20287;-83
2024/04/19 00:42:20;;;;;;;8.20;5.35;;;7.60;99.90;;;;;;5450101;26;20255;-83
2024/04/19 00:44:46;;;;;;;5.50;3.65;;;7.50;99.90;;;;;;5466783;26;20271;-82
2024/04/19 00:47:15;;;;;;;9.80;4.13;;;7.50;99.90;;;;;;5466565;26;20236;-81
2024/04/19 00:49:43;;;;;;;7.70;4.03;;;7.40;99.90;;;;;;5446111;26;20519;-83
2024/04/19 00:52:15;;;;;;;7.93;3.95;;;7.50;99.90;;;;;;5454116;26;20295;-82
2024/04/19 00:54:42;;;;;;;9.32;4.53;;;7.40;99.90;;;;;;5471334;26;20232;-82
2024/04/19 00:57:11;;;;;;;6.55;4.60;;;7.30;99.90;;;;;;5438019;26;20268;-82
2024/04/19 00:59:38;;;;;;;8.48;4.25;;;7.30;99.90;;;;;;5468578;26;20314;-83
2024/04/19 01:02:07;;;;;;;8.10;4.80;;;7.40;99.90;;;;;;5454357;26;20220;-81
2024/04/19 01:04:34;;;;;;;5.97;4.47;;;7.30;99.90;;;;;;5460781;26;20232;-81
2024/04/19 01:07:03;;;;;;;8.13;4.60;;;7.40;99.90;;;;;;5470886;26;20279;-81
2024/04/19 01:09:32;;;;;;;8.68;5.63;;;7.30;99.90;;;;;;5460684;26;20237;-79
2024/04/19 01:12:01;;;;;;;7.45;5.68;;;7.20;99.90;;;;;;5451099;26;20276;-84
2024/04/19 01:14:29;;;;;;;6.90;5.05;;;7.20;99.90;;;;;;5473082;26;20220;-83
2024/04/19 01:16:55;;;;;;;7.53;5.30;;;7.10;99.90;;;;;;5476544;26;20216;-83
2024/04/19 01:19:24;;;;;;;11.55;5.95;;;7.10;99.90;;;;;;5474824;26;20283;-81
2024/04/19 01:21:50;;;;;;;8.60;5.95;;;7.00;99.90;;;;;;5476331;26;20235;-84
2024/04/19 01:24:27;;;;;;;8.27;6.75;;;7.10;99.90;;;;;;5470917;26;20232;-83
2024/04/19 01:26:56;;;;;;;11.02;5.30;;;7.10;99.90;;;;;;5457771;26;20232;-82
2024/04/19 01:29:24;;;;;;;7.60;6.70;;;7.10;99.90;;;;;;5457409;26;20315;-82
2024/04/19 01:31:50;;;;;;;8.70;5.90;;;7.20;99.90;;;;;;5455257;26;20233;-81
2024/04/19 01:34:19;;;;;;;8.10;5.97;;;7.10;99.90;;;;;;5451432;26;20236;-81
2024/04/19 01:36:45;;;;;;;8.15;5.45;;;7.10;99.90;;;;;;5453333;26;20606;-81
2024/04/19 01:39:13;;;;;;;11.82;5.80;;;7.10;99.90;;;;;;5466295;26;20357;-82
2024/04/19 01:41:39;;;;;;;7.95;4.75;;;7.10;99.90;;;;;;5467348;26;20291;-82
2024/04/19 01:44:14;;;;;;;7.40;6.63;;;7.00;99.90;;;;;;5467773;26;20291;-81
2024/04/19 01:46:40;;;;;;;11.85;6.47;;;6.90;99.90;;;;;;5455627;26;20232;-82
2024/04/19 01:49:09;;;;;;;7.30;5.45;;;6.90;99.90;;;;;;5463954;26;20273;-82
2024/04/19 01:51:38;;;;;;;9.27;6.65;;;6.90;99.90;;;;;;5475854;26;20247;-81
2024/04/19 01:54:10;;;;;;;8.70;5.75;;;6.90;99.90;;;;;;5477054;26;20310;-83
2024/04/19 01:56:36;;;;;;;12.02;7.28;;;6.90;99.90;;;;;;5476252;26;20216;-81
2024/04/19 01:59:04;;;;;;;10.07;7.22;;;6.90;99.90;;;;;;5477133;26;20224;-81
2024/04/19 02:01:33;;;;;;;9.63;7.68;;;6.80;99.90;;;;;;5477542;26;20292;-81
2024/04/19 02:04:02;;;;;;;8.77;6.93;;;6.80;99.90;;;;;;5478077;26;20255;-81
2024/04/19 02:06:28;;;;;;;9.30;8.40;;;6.70;99.90;;;;;;5476827;26;20216;-84
2024/04/19 02:08:56;;;;;;;10.80;9.00;;;6.70;99.90;;;;;;5473961;26;20301;-79
2024/04/19 02:11:22;;;;;;;14.95;9.18;;;6.60;99.90;;;;;;5478211;26;20220;-84
2024/04/19 02:14:01;;;;;;;15.10;8.50;;;6.60;99.90;;;;;;5478102;26;20246;-80
2024/04/19 02:16:27;;;;;;;10.27;9.15;;;6.70;99.90;;;;;;5477137;26;20212;-85
2024/04/19 02:18:59;;;;;;;9.57;8.50;;;6.60;99.90;;;;;;5477480;26;20278;-82
2024/04/19 02:21:27;;;;;;;10.20;9.13;;;6.70;99.90;;;;;;5477193;26;20280;-80
2024/04/19 02:23:57;;;;;;;13.13;10.50;;;6.70;99.90;;;;;;5477031;26;20224;-82
2024/04/19 02:26:23;;;;;;;10.90;8.98;;;6.60;99.90;;;;;;5460463;26;20221;-80
2024/04/19 02:31:36;;;;;;;10.95;9.23;;;6.50;99.90;;;;;;5468332;26;20665;-83
2024/04/19 02:34:08;;;;;;;12.75;8.27;;;6.50;99.90;;;;;;5465205;26;20263;-81
2024/04/19 02:36:37;;;;;;;11.40;8.55;;;6.60;99.90;;;;;;5464652;26;20266;-82
2024/04/19 02:39:05;;;;;;;10.25;9.25;;;6.60;99.90;;;;;;5466095;26;20236;-82
2024/04/19 02:41:34;;;;;;;11.88;9.73;;;6.60;99.90;;;;;;5466774;26;20232;-83
2024/04/19 02:44:03;;;;;;;13.20;9.00;;;6.60;99.90;;;;;;5475907;26;20270;-84
2024/04/19 02:46:31;;;;;;;12.65;8.13;;;6.60;99.90;;;;;;5475556;26;20228;-83
2024/04/19 02:49:11;;;;;;;10.27;9.27;;;6.60;99.90;;;;;;5468093;26;20271;-85
2024/04/19 02:51:40;;;;;;;10.63;9.30;;;6.60;99.90;;;;;;5455459;26;20220;-81
2024/04/19 02:54:08;;;;;;;10.27;8.38;;;6.50;99.90;;;;;;5472752;26;20216;-82
2024/04/19 02:56:37;;;;;;;10.45;9.23;;;6.60;99.90;;;;;;5475581;26;20220;-81
2024/04/19 02:59:03;;;;;;;12.82;8.65;;;6.60;99.90;;;;;;5475223;26;20225;-82
2024/04/19 03:01:31;;;;;;;9.13;7.37;;;6.60;99.90;;;;;;5438857;26;20681;-81
2024/04/19 03:04:00;;;;;;;12.13;9.27;;;6.60;99.90;;;;;;5445534;26;20526;-82
2024/04/19 03:06:31;;;;;;;10.18;7.90;;;6.50;99.90;;;;;;5450824;26;20216;-81
2024/04/19 03:09:04;;;;;;;14.98;8.65;;;6.50;99.90;;;;;;5456049;26;20240;-82
2024/04/19 03:11:33;;;;;;;7.70;6.60;;;6.60;99.90;;;;;;5466847;26;20228;-81
2024/04/19 03:14:01;;;;;;;10.80;7.28;;;6.60;99.90;;;;;;5464957;26;20274;-82
2024/04/19 03:16:30;;;;;;;10.77;8.45;;;6.60;99.90;;;;;;5444516;26;20233;-85
2024/04/19 03:18:58;;;;;;;7.43;6.50;;;6.70;99.90;;;;;;5459324;26;20232;-84
2024/04/19 03:21:27;;;;;;;8.88;7.38;;;6.70;99.90;;;;;;5451652;26;20255;-83
2024/04/19 03:23:58;;;;;;;8.30;7.45;;;6.60;99.90;;;;;;5452949;26;20268;-82
2024/04/19 03:26:27;;;;;;;8.15;7.25;;;6.60;99.90;;;;;;5451049;26;20228;-82
2024/04/19 03:28:53;;;;;;;9.13;7.45;;;6.70;99.90;;;;;;5445663;26;20237;-82
2024/04/19 03:31:22;;;;;;;14.38;7.72;;;6.60;99.90;;;;;;5448597;26;21057;-82
2024/04/19 03:33:50;;;;;;;8.57;7.60;;;6.60;99.90;;;;;;5466145;26;20232;-82
2024/04/19 03:36:19;;;;;;;12.32;8.00;;;6.60;99.90;;;;;;5464440;26;20275;-83
2024/04/19 03:38:48;;;;;;;10.27;7.70;;;6.60;99.90;;;;;;5447509;26;20279;-81
2024/04/19 03:41:19;;;;;;;8.25;7.38;;;6.70;99.90;;;;;;5430063;26;20234;-82
2024/04/19 03:45:40;;;;;;;9.80;7.10;;;6.60;99.90;;;;;;5455346;26;20240;-82
2024/04/19 03:46:40;;;;;;;8.55;7.65;;;6.60;99.90;;;;;;5442988;26;20272;-81
2024/04/19 03:49:09;;;;;;;9.52;6.85;;;6.60;99.90;;;;;;5459710;26;20239;-81
2024/04/19 03:51:37;;;;;;;13.93;8.68;;;6.70;99.90;;;;;;5454695;26;20320;-81
2024/04/19 03:54:06;;;;;;;9.30;8.40;;;6.80;99.90;;;;;;5457834;26;20275;-79
2024/04/19 03:56:37;;;;;;;9.65;8.40;;;6.70;99.90;;;;;;5461830;26;20228;-81
2024/04/19 03:59:06;;;;;;;12.20;9.38;;;6.70;99.90;;;;;;5445482;26;20288;-82
2024/04/19 04:01:35;;;;;;;8.82;7.90;;;6.70;99.90;;;;;;5436151;26;20264;-83
2024/04/19 04:04:01;;;;;;;10.68;8.70;;;6.70;99.90;;;;;;5448390;26;20232;-82
2024/04/19 04:06:29;;;;;;;9.25;8.25;;;6.70;99.90;;;;;;5433548;26;20221;-83
2024/04/19 04:08:58;;;;;;;11.45;7.30;;;6.70;99.90;;;;;;5437888;26;20280;-81
2024/04/19 04:11:27;;;;;;;10.63;7.97;;;6.70;99.90;;;;;;5443830;26;20205;-81
2024/04/19 04:13:58;;;;;;;12.70;9.27;;;6.70;99.90;;;;;;5444486;26;20233;-84
2024/04/19 04:16:26;;;;;;;11.40;10.15;;;6.80;99.90;;;;;;5444376;26;20242;-83
2024/04/19 04:18:55;;;;;;;10.98;9.88;;;6.70;99.90;;;;;;5443656;26;20280;-84
2024/04/19 04:21:24;;;;;;;12.20;10.15;;;6.70;99.90;;;;;;5443905;26;20209;-84
2024/04/19 04:23:52;;;;;;;12.75;9.50;;;6.70;99.90;;;;;;5443770;26;20251;-83
2024/04/19 04:26:22;;;;;;;14.02;10.40;;;6.80;99.90;;;;;;5444135;26;20213;-86
2024/04/19 04:28:51;;;;;;;13.32;9.80;;;6.80;99.90;;;;;;5443247;26;20221;-84
2024/04/19 04:31:22;;;;;;;15.13;11.30;;;6.80;99.90;;;;;;5443902;26;20206;-84
2024/04/19 04:33:50;;;;;;;10.48;9.32;;;6.90;99.90;;;;;;5443857;26;20214;-84
2024/04/19 04:36:19;;;;;;;11.63;10.43;;;6.80;99.90;;;;;;5442974;26;20217;-84
2024/04/19 04:38:48;;;;;;;14.05;10.82;;;6.90;99.90;;;;;;5443365;26;20225;-83
2024/04/19 04:41:17;;;;;;;12.52;11.23;;;6.80;99.90;;;;;;5476268;26;20212;-84
2024/04/19 04:43:46;;;;;;;43.90;12.52;;;6.80;99.90;;;;;;5479996;26;20235;-84
2024/04/19 04:46:14;;;;;;;13.77;10.13;;;6.80;99.90;;;;;;5464221;26;20208;-84
2024/04/19 04:48:45;;;;;;;15.35;11.50;;;6.80;99.90;;;;;;5453547;26;20256;-83
2024/04/19 04:51:14;;;;;;;13.45;10.90;;;6.90;99.90;;;;;;5459810;26;20270;-83
2024/04/19 04:53:43;;;;;;;12.35;11.05;;;6.80;99.90;;;;;;5478431;26;20232;-85
2024/04/19 04:56:12;;;;;;;13.00;10.20;;;6.80;99.90;;;;;;5476939;26;20259;-84
2024/04/19 04:58:41;;;;;;;13.30;11.80;;;6.90;99.90;;;;;;5460297;26;20719;-83
2024/04/19 05:01:09;;;;;;;12.85;10.85;;;6.90;99.90;;;;;;5470892;26;20735;-82
2024/04/19 05:03:38;;;;;;;14.30;11.35;;;7.00;99.90;;;;;;5473318;26;20221;-81
2024/04/19 05:06:09;;;;;;;12.68;11.48;;;6.90;99.90;;;;;;5478154;26;20302;-81
2024/04/19 05:08:38;;;;;;;14.48;13.00;;;7.00;99.90;;;;;;5465129;26;20225;-81
2024/04/19 05:11:06;;;;;;;23.40;14.07;;;7.10;99.90;;;;;;5472504;26;20251;-82
2024/04/19 05:13:35;;;;;;;14.75;11.57;;;7.10;99.90;;;;;;5478137;26;20212;-82
2024/04/19 05:16:05;;;;;;;18.02;13.07;;;7.20;99.90;;;;;;5478196;26;20250;-81
2024/04/19 05:18:33;;;;;;;11.20;10.20;;;7.20;99.90;;;;;;5476057;26;20274;-80
2024/04/19 05:21:02;;;;;;;19.65;12.55;;;7.20;99.90;;;;;;5472116;26;20263;-83
2024/04/19 05:23:37;;;;;;;28.40;15.88;;;7.20;99.90;;;;;;5452025;26;20232;-85
2024/04/19 05:26:06;;;;;;;24.17;14.15;;;7.20;99.90;;;;;;5438628;26;20279;-85
2024/04/19 05:28:36;;;;;;;13.55;11.95;;;7.30;99.90;;;;;;5435348;26;20311;-85
2024/04/19 05:31:06;;;;;;;14.73;13.18;;;7.30;99.90;;;;;;5465192;26;20220;-84
2024/04/19 05:33:34;;;;;;;16.10;13.10;;;7.40;99.90;;;;;;5458091;26;20236;-82
2024/04/19 05:36:03;;;;;;;17.35;13.00;;;7.40;99.90;;;;;;5470090;26;20232;-84
2024/04/19 05:38:52;;;;;;;27.48;15.25;;;7.40;99.90;;;;;;5455423;26;20236;-82
2024/04/19 05:47:25;;;;;;;17.33;13.45;;;7.50;99.90;;;;;;5270227;21;20230;-77
2024/04/19 05:49:54;;;;;;;21.33;14.40;;;7.50;99.90;;;;;;5467347;26;20332;-77
2024/04/19 05:52:23;;;;;;;23.42;15.15;;;7.50;99.90;;;;;;5468356;26;20285;-77
2024/04/19 05:54:54;;;;;;;20.27;14.65;;;7.50;99.90;;;;;;5464266;26;20232;-77
2024/04/19 05:57:23;;;;;;;20.60;14.13;;;7.60;99.90;;;;;;5486454;26;20227;-77
2024/04/19 05:59:52;;;;;;;19.23;14.63;;;7.70;99.90;;;;;;5474127;26;20231;-77
2024/04/19 06:02:20;;;;;;;15.15;13.60;;;7.80;99.90;;;;;;5485184;26;20239;-78
2024/04/19 06:04:49;;;;;;;21.15;15.90;;;7.80;99.90;;;;;;5479446;26;20231;-77
2024/04/19 06:07:21;;;;;;;16.10;12.52;;;7.90;99.90;;;;;;5493551;26;20226;-77
2024/04/19 06:09:49;;;;;;;17.25;14.45;;;8.00;99.90;;;;;;5478949;26;20623;-76
2024/04/19 06:12:21;;;;;;;14.88;13.38;;;8.10;99.90;;;;;;5470637;26;20236;-76
2024/04/19 06:14:49;;;;;;;38.08;18.35;;;8.10;99.90;;;;;;5482227;26;20584;-76
2024/04/19 06:17:18;;;;;;;16.52;13.55;;;8.20;99.90;;;;;;5470925;26;20232;-75
2024/04/19 06:19:47;;;;;;;21.00;15.40;;;8.30;99.90;;;;;;5478241;26;20227;-77
2024/04/19 06:22:16;;;;;;;25.40;13.93;;;8.30;99.90;;;;;;5486469;26;20277;-76
2024/04/19 06:24:45;;;;;;;14.98;11.73;;;8.30;99.90;;;;;;5453013;26;20658;-78
2024/04/19 06:27:15;;;;;;;14.60;13.10;;;8.40;99.90;;;;;;5483141;26;20223;-79
2024/04/19 06:29:46;;;;;;;14.18;11.07;;;8.50;99.90;;;;;;5493699;26;20247;-79
2024/04/19 06:32:12;;;;;;;15.43;13.73;;;8.60;99.90;;;;;;5484244;26;20239;-79
2024/04/19 06:34:41;;;;;;;15.00;13.40;;;8.70;99.90;;;;;;5488172;26;20680;-77
2024/04/19 06:37:09;;;;;;;17.50;14.60;;;8.70;99.90;;;;;;5487648;26;20277;-78
2024/04/19 06:39:38;;;;;;;19.67;13.95;;;8.70;99.90;;;;;;5488888;26;20270;-79
2024/04/19 06:42:07;;;;;;;17.38;14.68;;;8.80;99.90;;;;;;5490575;26;20273;-78
2024/04/19 06:44:36;;;;;;;17.52;12.80;;;8.80;99.90;;;;;;5467830;26;20266;-76
2024/04/19 06:47:08;;;;;;;19.88;14.27;;;8.90;99.90;;;;;;5465468;26;20227;-77
2024/04/19 06:49:37;;;;;;;29.85;15.23;;;8.90;99.90;;;;;;5474996;26;20239;-77
2024/04/19 06:52:06;;;;;;;15.75;14.10;;;8.90;99.90;;;;;;5473901;26;20235;-79
2024/04/19 06:54:34;;;;;;;14.10;12.60;;;9.00;99.90;;;;;;5474390;26;20228;-79
2024/04/19 06:57:03;;;;;;;19.58;13.40;;;9.10;99.90;;;;;;5460950;26;20565;-78
2024/04/19 06:59:32;;;;;;;14.45;12.68;;;9.10;99.90;;;;;;5473715;26;20235;-80
2024/04/19 07:02:00;;;;;;;11.93;10.77;;;9.20;99.90;;;;;;5477005;26;20289;-76
2024/04/19 07:04:32;;;;;;;11.90;10.77;;;9.30;99.90;;;;;;5487373;26;20231;-78
2024/04/19 07:07:00;;;;;;;14.15;9.52;;;9.40;99.90;;;;;;5487098;26;20231;-74
2024/04/19 07:09:29;;;;;;;10.68;9.57;;;9.50;99.90;;;;;;5486855;26;20230;-77
2024/04/19 07:11:57;;;;;;;10.65;9.18;;;9.70;99.90;;;;;;5479142;26;20235;-75
2024/04/19 07:14:26;;;;;;;10.13;9.02;;;9.80;99.90;;;;;;5496008;26;20282;-74
2024/04/19 07:16:55;;;;;;;11.00;7.40;;;9.90;99.90;;;;;;5465909;26;20240;-77
2024/04/19 07:19:25;;;;;;;13.55;7.00;;;10.30;99.90;;;;;;5470320;26;20686;-74
2024/04/19 07:21:56;;;;;;;6.95;5.88;;;10.50;99.90;;;;;;5487512;26;20281;-75
2024/04/19 07:24:25;;;;;;;9.85;4.45;;;10.80;99.90;;;;;;5483909;26;20277;-75
2024/04/19 07:26:54;;;;;;;7.65;4.97;;;11.10;99.90;;;;;;5460436;26;20233;-77
2024/04/19 07:29:29;;;;;;;6.63;4.80;;;11.40;99.90;;;;;;5482019;26;20231;-79
2024/04/19 07:32:01;;;;;;;9.50;5.18;;;11.60;99.90;;;;;;5464190;26;20235;-77
2024/04/19 07:34:30;;;;;;;5.45;3.80;;;11.60;99.90;;;;;;5487917;26;20228;-76
2024/04/19 07:37:01;;;;;;;7.40;3.30;;;11.60;99.90;;;;;;5462125;26;20235;-77
2024/04/19 07:39:30;;;;;;;10.25;3.92;;;11.70;99.90;;;;;;5479227;26;20759;-76
2024/04/19 07:41:59;;;;;;;7.15;4.25;;;11.70;99.90;;;;;;5466812;26;21001;-77
2024/04/19 07:44:27;;;;;;;5.65;3.47;;;11.70;99.90;;;;;;5485740;26;20240;-76
2024/04/19 07:46:56;;;;;;;10.23;3.90;;;11.70;99.90;;;;;;5488763;26;20725;-78
2024/04/19 07:49:25;;;;;;;8.00;3.03;;;11.60;99.90;;;;;;5488312;26;20243;-73
2024/04/19 07:51:53;;;;;;;7.70;3.45;;;11.60;99.90;;;;;;5492696;26;20717;-77
2024/04/19 07:54:25;;;;;;;7.20;3.30;;;11.60;99.90;;;;;;5488659;26;20231;-76
2024/04/19 07:56:53;;;;;;;7.68;3.15;;;11.60;99.90;;;;;;5489073;26;20660;-75
2024/04/19 07:59:22;;;;;;;5.72;2.95;;;11.90;99.90;;;;;;5473549;26;20573;-77
2024/04/19 08:01:55;;;;;;;4.82;2.70;;;11.90;99.90;;;;;;5468889;26;20236;-77
2024/04/19 08:04:24;;;;;;;7.15;2.40;;;11.80;99.90;;;;;;5489088;26;20356;-75
2024/04/19 08:06:53;;;;;;;8.48;3.28;;;11.80;99.90;;;;;;5479236;26;20227;-78
2024/04/19 08:09:21;;;;;;;8.25;3.75;;;11.80;99.90;;;;;;5470418;26;20236;-76
2024/04/19 08:11:53;;;;;;;8.80;3.05;;;11.80;99.90;;;;;;5465471;26;20236;-76
2024/04/19 08:14:21;;;;;;;3.63;1.77;;;11.70;99.90;;;;;;5466519;26;20236;-75
2024/04/19 08:16:50;;;;;;;5.13;2.13;;;11.80;99.90;;;;;;5493427;26;20285;-74
2024/04/19 08:19:18;;;;;;;8.38;2.60;;;11.80;99.90;;;;;;5493542;26;20266;-76
2024/04/19 08:21:47;;;;;;;6.75;1.90;;;11.80;99.90;;;;;;5490482;26;20235;-75
2024/04/19 08:24:16;;;;;;;6.25;1.73;;;11.90;99.90;;;;;;5478370;26;20309;-75
2024/04/19 08:26:44;;;;;;;7.30;2.15;;;11.90;99.90;;;;;;5480268;26;20232;-76
2024/04/19 08:29:16;;;;;;;5.78;1.48;;;11.90;99.90;;;;;;5477456;26;20235;-74
2024/04/19 08:31:44;;;;;;;5.40;1.60;;;12.00;99.90;;;;;;5489053;26;20235;-76
2024/04/19 08:34:13;;;;;;;4.82;2.38;;;12.30;99.90;;;;;;5487559;26;20578;-77
2024/04/19 08:36:42;;;;;;;10.70;2.17;;;12.50;99.90;;;;;;5474217;26;20219;-74
2024/04/19 08:39:11;;;;;;;5.65;1.83;;;12.50;99.90;;;;;;5474795;26;20278;-77
2024/04/19 08:41:39;;;;;;;3.60;1.58;;;12.50;99.90;;;;;;5466847;26;20232;-79
2024/04/19 08:44:09;;;;;;;8.25;2.92;;;12.50;99.90;;;;;;5479720;26;20765;-75
2024/04/19 08:46:42;;;;;;;5.25;2.05;;;12.60;99.90;;;;;;5468176;26;20232;-77
2024/04/19 08:49:12;;;;;;;4.32;1.58;;;13.40;99.90;;;;;;5472870;26;20290;-78
2024/04/19 08:51:41;;;;;;;4.85;1.88;;;14.40;99.90;;;;;;5489553;26;20583;-78
2024/04/19 08:54:11;;;;;;;7.10;1.60;;;15.50;99.90;;;;;;5487473;26;20280;-78
2024/04/19 08:56:40;;;;;;;2.83;1.80;;;16.30;99.90;;;;;;5483079;26;21080;-79
2024/04/19 08:59:12;;;;;;;7.30;2.00;;;16.80;99.90;;;;;;5489361;26;20467;-77
2024/04/19 09:01:43;;;;;;;4.67;1.27;;;16.40;99.90;;;;;;5482822;26;20467;-78
2024/04/19 09:04:12;;;;;;;3.23;1.70;;;15.90;99.90;;;;;;5486666;26;20523;-77
2024/04/19 09:06:41;;;;;;;2.50;1.53;;;16.10;99.90;;;;;;5489143;26;20470;-78
2024/04/19 09:09:10;;;;;;;4.53;1.40;;;16.20;99.90;;;;;;5489882;26;20464;-77
2024/04/19 09:11:44;;;;;;;3.97;1.43;;;16.00;99.60;;;;;;5475596;26;20558;-78
2024/04/19 09:14:12;;;;;;;4.57;1.20;;;16.00;99.90;;;;;;5489671;26;20506;-79
2024/04/19 09:16:44;;;;;;;7.32;2.30;;;15.50;99.00;;;;;;5487169;26;20227;-76
2024/04/19 09:19:13;;;;;;;4.78;1.70;;;14.80;99.90;;;;;;5496083;26;20230;-79
2024/04/19 09:21:42;;;;;;;4.78;2.28;;;14.20;99.90;;;;;;5486160;26;20352;-78
2024/04/19 09:24:11;;;;;;;7.70;1.52;;;13.80;99.90;;;;;;5479381;26;20227;-78
2024/04/19 09:26:40;;;;;;;2.00;1.00;;;13.40;99.90;;;;;;5477412;26;20227;-76
2024/04/19 09:29:09;;;;;;;2.55;1.08;;;13.40;99.90;;;;;;5483892;26;20361;-77
2024/04/19 09:31:38;;;;;;;5.47;1.55;;;13.90;99.90;;;;;;5470315;26;20366;-79
2024/04/19 09:34:10;;;;;;;6.33;1.20;;;14.50;99.90;;;;;;5470133;26;20236;-77
2024/04/19 09:36:47;;;;;;;2.38;1.00;;;15.50;99.90;;;;;;5486219;26;21021;-78
2024/04/19 09:39:16;;;;;;;3.40;1.40;;;15.80;99.90;;;;;;5487433;26;20232;-78
2024/04/19 09:41:48;;;;;;;4.90;1.87;;;16.30;99.90;;;;;;5472535;26;20472;-78
2024/04/19 09:44:18;;;;;;;6.53;1.87;;;16.70;99.50;;;;;;5473952;26;20497;-75
2024/04/19 09:46:51;;;;;;;5.03;1.50;;;16.70;98.10;;;;;;5488742;26;20521;-78
2024/04/19 09:49:26;;;;;;;3.00;1.63;;;16.70;97.60;;;;;;5448724;26;21071;-79
2024/04/19 09:51:55;;;;;;;4.47;1.37;;;16.70;97.70;;;;;;5478287;26;20476;-78
2024/04/19 09:54:29;;;;;;;2.57;1.60;;;16.70;96.90;;;;;;5488862;26;20470;-79
2024/04/19 09:56:59;;;;;;;2.00;1.40;;;16.20;97.20;;;;;;5498597;26;20470;-77
2024/04/19 09:59:29;;;;;;;10.35;2.58;;;15.40;99.50;;;;;;5483865;26;20236;-79
2024/04/19 10:01:59;;;;;;;2.90;1.52;;;14.80;99.90;;;;;;5479629;26;20243;-77
2024/04/19 10:04:32;;;;;;;5.93;1.85;;;14.50;99.90;;;;;;5459577;26;20973;-79
2024/04/19 10:07:04;;;;;;;7.35;1.88;;;14.60;99.90;;;;;;5488761;26;20235;-76
2024/04/19 10:09:33;;;;;;;7.35;1.95;;;14.50;99.90;;;;;;5473210;26;20598;-77
2024/04/19 10:12:04;;;;;;;3.55;1.55;;;14.80;99.90;;;;;;5488312;26;20234;-78
2024/04/19 10:14:34;;;;;;;8.60;2.60;;;15.10;99.90;;;;;;5487994;26;20231;-77
2024/04/19 10:17:03;;;;;;;4.40;1.83;;;15.10;99.90;;;;;;5476264;26;20825;-78
2024/04/19 10:19:36;;;;;;;6.80;2.10;;;15.50;99.90;;;;;;5482520;26;20281;-77
2024/04/19 10:22:05;;;;;;;7.40;2.17;;;15.60;99.90;;;;;;5480892;26;20467;-79
2024/04/19 10:24:33;;;;;;;6.77;1.63;;;15.80;99.20;;;;;;5483539;26;20461;-77
2024/04/19 10:27:05;;;;;;;6.83;2.63;;;16.50;97.60;;;;;;5479895;26;20520;-76
2024/04/19 10:29:33;;;;;;;3.73;1.80;;;16.60;98.00;;;;;;5485042;26;20525;-77
2024/04/19 10:32:03;;;;;;;3.10;1.60;;;16.40;96.30;;;;;;5488199;26;20472;-76
2024/04/19 10:34:35;;;;;;;7.78;2.13;;;15.70;97.30;;;;;;5469358;26;20985;-76
2024/04/19 10:37:04;;;;;;;5.85;3.38;;;15.20;98.50;;;;;;5480205;26;20274;-76
2024/04/19 10:39:34;;;;;;;4.95;1.75;;;14.70;99.00;;;;;;5483260;26;20282;-77
2024/04/19 10:42:02;;;;;;;5.03;1.50;;;14.50;99.70;;;;;;5454201;26;20252;-76
2024/04/19 10:44:31;;;;;;;7.95;2.53;;;14.60;99.60;;;;;;5459353;26;20699;-77
2024/04/19 10:47:00;;;;;;;4.40;1.70;;;14.80;99.60;;;;;;5474188;26;20243;-77
2024/04/19 10:49:29;;;;;;;6.97;2.33;;;15.00;98.80;;;;;;5472684;26;20239;-77
2024/04/19 10:52:02;;;;;;;8.70;2.00;;;15.10;98.40;;;;;;5487144;26;20725;-77
2024/04/19 10:54:30;;;;;;;5.13;1.55;;;14.80;98.80;;;;;;5473235;26;20282;-76
2024/04/19 10:56:58;;;;;;;9.60;2.10;;;14.80;99.50;;;;;;5485872;26;20725;-76
2024/04/19 10:59:27;;;;;;;8.00;2.20;;;14.90;99.40;;;;;;5488121;26;20298;-77
2024/04/19 11:01:59;;;;;;;6.35;2.33;;;14.90;98.90;;;;;;5488658;26;20235;-76
2024/04/19 11:04:28;;;;;;;5.30;2.17;;;14.60;99.90;;;;;;5465627;26;20232;-77
2024/04/19 11:06:59;;;;;;;7.03;2.47;;;14.30;99.90;;;;;;5473275;26;20231;-76
2024/04/19 11:09:29;;;;;;;6.30;2.30;;;14.00;99.90;;;;;;5473638;26;20717;-77
2024/04/19 11:11:59;;;;;;;5.43;2.25;;;13.80;99.90;;;;;;5477235;26;20240;-77
2024/04/19 11:14:29;;;;;;;4.55;2.58;;;13.90;99.90;;;;;;5452281;26;20232;-77
2024/04/19 11:16:57;;;;;;;8.23;3.20;;;14.10;99.90;;;;;;5466323;26;20732;-78
2024/04/19 11:19:27;;;;;;;12.00;3.38;;;14.10;99.90;;;;;;5488882;26;20227;-76
2024/04/19 11:21:58;;;;;;;4.47;2.75;;;14.10;99.90;;;;;;5481434;26;20710;-76
2024/04/19 11:24:31;;;;;;;5.00;2.75;;;14.10;99.90;;;;;;5468932;21;20305;-80
2024/04/19 11:27:00;;;;;;;11.88;2.88;;;14.00;99.90;;;;;;5420915;26;20225;-80
2024/04/19 11:29:29;;;;;;;7.65;3.50;;;13.90;99.90;;;;;;5426843;26;20381;-81
2024/04/19 11:31:57;;;;;;;7.55;2.50;;;14.20;99.90;;;;;;5428185;26;20276;-80
2024/04/19 11:34:32;;;;;;;10.52;2.80;;;14.40;99.90;;;;;;5426592;26;20684;-80
2024/04/19 11:37:03;;;;;;;10.88;3.40;;;14.50;99.90;;;;;;5426949;26;20684;-80
2024/04/19 11:39:35;;;;;;;7.93;5.30;;;14.50;99.50;;;;;;5429937;26;20237;-79
2024/04/19 11:42:04;;;;;;;8.35;4.47;;;14.60;99.70;;;;;;5435710;26;20229;-80
2024/04/19 11:44:33;;;;;;;5.97;2.08;;;14.40;98.00;;;;;;5434515;26;20233;-80
2024/04/19 11:47:05;;;;;;;5.07;2.22;;;14.10;98.40;;;;;;5427918;26;20755;-79
2024/04/19 11:49:35;;;;;;;5.18;2.63;;;14.20;99.20;;;;;;5429980;26;20225;-78
2024/04/19 11:52:04;;;;;;;8.00;2.83;;;14.40;99.20;;;;;;5438011;26;20230;-79
2024/04/19 11:54:35;;;;;;;10.43;2.22;;;14.60;97.90;;;;;;5438290;26;20245;-79
2024/04/19 11:57:06;;;;;;;9.45;4.20;;;14.80;96.90;;;;;;5438154;26;20276;-79
2024/04/19 11:59:35;;;;;;;4.72;2.75;;;14.90;96.80;;;;;;5438749;26;20233;-79
2024/04/19 12:02:04;;;;;;;5.60;2.35;;;15.20;96.40;;;;;;5436725;26;20308;-79
2024/04/19 12:04:33;;;;;;;5.82;2.03;;;14.40;96.40;;;;;;5435013;26;20245;-78
2024/04/19 12:07:01;;;;;;;6.40;3.85;;;13.90;97.80;;;;;;5424852;26;20229;-80
2024/04/19 12:09:32;;;;;;;4.13;2.97;;;13.50;99.10;;;;;;5426463;26;20241;-80
2024/04/19 12:12:03;;;;;;;8.82;2.97;;;13.50;99.90;;;;;;5426705;26;20743;-81
2024/04/19 12:14:34;;;;;;;6.40;2.47;;;13.70;99.90;;;;;;5427736;26;20535;-82
2024/04/19 12:17:03;;;;;;;5.95;2.08;;;13.60;99.90;;;;;;5427586;26;20229;-81
2024/04/19 12:19:32;;;;;;;8.38;2.58;;;13.60;99.90;;;;;;5428350;26;20237;-79
2024/04/19 12:22:01;;;;;;;3.58;1.50;;;13.80;99.90;;;;;;5426668;26;20296;-80
2024/04/19 12:24:34;;;;;;;4.55;1.98;;;13.60;99.00;;;;;;5428173;26;20328;-80
2024/04/19 12:27:06;;;;;;;9.68;2.08;;;13.40;98.90;;;;;;5426158;26;20297;-80
2024/04/19 12:29:35;;;;;;;6.95;2.10;;;13.30;99.60;;;;;;5428161;26;20767;-79
2024/04/19 12:32:05;;;;;;;10.20;2.42;;;13.30;99.60;;;;;;5419083;26;20334;-80
2024/04/19 12:34:34;;;;;;;9.73;3.75;;;13.10;99.90;;;;;;5432945;26;20241;-79
2024/04/19 12:37:02;;;;;;;3.53;1.70;;;13.30;99.90;;;;;;5423054;26;20288;-79
2024/04/19 12:39:31;;;;;;;5.20;2.03;;;13.60;99.90;;;;;;5431728;26;20272;-80
2024/04/19 12:42:00;;;;;;;6.40;1.60;;;13.90;99.90;;;;;;5431464;26;20229;-79
2024/04/19 12:44:31;;;;;;;7.30;2.15;;;13.90;99.90;;;;;;5428543;26;20241;-80
2024/04/19 12:47:00;;;;;;;6.28;1.92;;;13.70;99.90;;;;;;5426832;26;20272;-80
2024/04/19 12:49:29;;;;;;;5.07;2.03;;;13.30;99.90;;;;;;5426498;26;20296;-79
2024/04/19 12:51:57;;;;;;;11.50;3.80;;;12.90;99.90;;;;;;5426508;26;20271;-79
2024/04/19 12:54:26;;;;;;;6.60;4.90;;;12.50;99.90;;;;;;5428230;26;20233;-80
2024/04/19 12:56:55;;;;;;;7.30;2.90;;;12.30;99.90;;;;;;5425608;26;20285;-80
2024/04/19 12:59:23;;;;;;;5.95;2.75;;;12.20;99.90;;;;;;5426295;26;20257;-80
2024/04/19 13:01:54;;;;;;;11.65;2.90;;;12.20;99.90;;;;;;5426759;26;20233;-81
2024/04/19 13:04:23;;;;;;;8.95;3.70;;;12.30;99.90;;;;;;5427603;26;20276;-79